createdAt,value
2022-10-19T03:58:55.517Z,0.00
2022-10-19T03:59:55.497Z,0.00
2022-10-19T04:00:55.531Z,0.00
2022-10-19T04:01:55.491Z,0.00
2022-10-19T04:02:55.479Z,0.00
2022-10-19T04:03:55.493Z,0.00
2022-10-19T04:04:55.503Z,0.00
2022-10-19T04:05:55.485Z,0.00
2022-10-19T04:06:55.482Z,0.00
2022-10-19T04:07:55.483Z,0.00
2022-10-19T04:08:55.486Z,0.00
2022-10-19T04:09:54.993Z,0.00
2022-10-19T04:10:54.829Z,0.00
2022-10-19T04:11:53.819Z,0.00
2022-10-19T04:12:54.085Z,0.00
2022-10-19T04:13:55.516Z,0.00
2022-10-19T04:14:57.615Z,0.00
2022-10-19T04:15:54.799Z,0.00
2022-10-19T04:16:55.492Z,0.00
2022-10-19T04:17:55.501Z,0.00
2022-10-19T04:18:55.496Z,0.00
2022-10-19T04:19:55.522Z,0.00
2022-10-19T04:20:55.507Z,0.00
2022-10-19T04:21:55.495Z,0.00
2022-10-19T04:22:55.502Z,0.00
2022-10-19T04:23:55.506Z,0.00
2022-10-19T04:24:55.501Z,0.00
2022-10-19T04:25:55.513Z,0.00
2022-10-19T04:26:55.509Z,0.00
2022-10-19T04:27:53.760Z,0.00
2022-10-19T04:28:53.847Z,0.00
2022-10-19T04:29:53.753Z,0.00
2022-10-19T04:30:53.761Z,0.00
2022-10-19T04:31:55.519Z,0.00
2022-10-19T04:32:53.746Z,0.00
2022-10-19T04:33:53.747Z,0.00
2022-10-19T04:34:53.735Z,0.00
2022-10-19T04:35:55.019Z,0.00
2022-10-19T04:36:53.727Z,0.00
2022-10-19T04:37:53.725Z,0.00
2022-10-19T04:38:53.731Z,0.00
2022-10-19T04:39:53.719Z,0.00
2022-10-19T04:40:55.029Z,0.00
2022-10-19T04:41:53.713Z,0.00
2022-10-19T04:42:53.715Z,0.00
2022-10-19T04:43:53.711Z,0.00
2022-10-19T04:44:53.705Z,0.00
2022-10-19T04:45:55.569Z,0.00
2022-10-19T04:46:55.528Z,0.00
2022-10-19T04:47:53.694Z,0.00
2022-10-19T04:48:53.690Z,0.00
2022-10-19T04:49:55.517Z,0.00
2022-10-19T04:50:54.689Z,0.00
2022-10-19T04:51:55.538Z,0.00
2022-10-19T04:52:55.534Z,0.00
2022-10-19T04:53:57.000Z,0.00
2022-10-19T04:54:55.518Z,0.00
2022-10-19T04:55:54.683Z,0.00
2022-10-19T04:56:55.527Z,0.00
2022-10-19T04:57:55.538Z,0.00
2022-10-19T04:58:55.552Z,0.00
2022-10-19T04:59:55.533Z,0.00
2022-10-19T05:00:55.585Z,0.00
2022-10-19T05:01:55.570Z,0.00
2022-10-19T05:02:55.531Z,0.00
2022-10-19T05:04:53.662Z,0.00
2022-10-19T05:05:55.531Z,0.00
2022-10-19T05:06:55.544Z,0.00
2022-10-19T05:07:53.640Z,0.00
2022-10-19T05:08:53.635Z,0.00
2022-10-19T05:09:53.636Z,0.00
2022-10-19T05:10:55.550Z,0.00
2022-10-19T05:11:53.638Z,0.00
2022-10-19T05:12:55.559Z,0.00
2022-10-19T05:13:54.613Z,0.00
2022-10-19T05:14:53.619Z,0.00
2022-10-19T05:15:53.616Z,0.00
2022-10-19T05:16:55.553Z,0.00
2022-10-19T05:17:55.559Z,0.00
2022-10-19T05:18:55.545Z,0.00
2022-10-19T05:19:55.551Z,0.00
2022-10-19T05:20:55.544Z,0.00
2022-10-19T05:21:55.562Z,0.00
2022-10-19T05:22:55.552Z,0.00
2022-10-19T05:23:55.546Z,0.00
2022-10-19T05:24:58.088Z,0.00
2022-10-19T05:25:55.566Z,0.00
2022-10-19T05:26:55.551Z,0.00
2022-10-19T05:27:55.554Z,0.00
2022-10-19T05:28:55.727Z,0.00
2022-10-19T05:29:55.083Z,0.00
2022-10-19T05:30:55.572Z,0.00
2022-10-19T05:31:55.571Z,0.00
2022-10-19T05:32:54.619Z,0.00
2022-10-19T05:33:55.669Z,0.00
2022-10-19T05:34:54.563Z,0.00
2022-10-19T05:35:55.080Z,0.00
2022-10-19T05:36:55.056Z,0.00
2022-10-19T05:37:55.067Z,0.00
2022-10-19T05:38:55.065Z,0.00
2022-10-19T05:39:55.060Z,0.00
2022-10-19T05:40:55.065Z,0.00
2022-10-19T05:41:55.087Z,0.00
2022-10-19T05:42:55.111Z,0.00
2022-10-19T05:43:55.088Z,0.00
2022-10-19T05:44:55.063Z,0.00
2022-10-19T05:45:55.077Z,0.00
2022-10-19T05:46:55.082Z,0.00
2022-10-19T05:47:54.583Z,0.00
2022-10-19T05:48:55.072Z,0.00
2022-10-19T05:49:55.078Z,0.00
2022-10-19T05:50:54.543Z,0.00
2022-10-19T05:51:55.092Z,0.00
2022-10-19T05:52:55.084Z,0.00
2022-10-19T05:53:55.092Z,0.00
2022-10-19T05:54:55.075Z,0.00
2022-10-19T05:55:55.076Z,0.00
2022-10-19T05:56:55.075Z,0.00
2022-10-19T05:57:55.096Z,0.00
2022-10-19T05:58:55.079Z,0.00
2022-10-19T05:59:55.087Z,0.00
2022-10-19T06:00:55.084Z,0.00
2022-10-19T06:01:56.626Z,0.00
2022-10-19T06:02:59.044Z,0.00
2022-10-19T06:03:55.084Z,0.00
2022-10-19T06:04:54.498Z,0.00
2022-10-19T06:05:54.492Z,0.00
2022-10-19T06:06:54.596Z,0.00
2022-10-19T06:07:53.481Z,0.00
2022-10-19T06:08:54.598Z,0.00
2022-10-19T06:09:53.464Z,0.00
2022-10-19T06:10:53.465Z,0.00
2022-10-19T06:11:55.102Z,0.00
2022-10-19T06:12:54.602Z,0.00
2022-10-19T06:13:55.120Z,0.00
2022-10-19T06:14:53.455Z,0.00
2022-10-19T06:15:53.450Z,0.00
2022-10-19T06:16:53.444Z,0.00
2022-10-19T06:17:55.110Z,0.00
2022-10-19T06:18:55.115Z,0.00
2022-10-19T06:19:53.439Z,0.00
2022-10-19T06:20:55.099Z,0.00
2022-10-19T06:21:53.446Z,0.00
2022-10-19T06:22:55.099Z,5.63
2022-10-19T06:23:55.116Z,5.63
2022-10-19T06:24:53.426Z,5.63
2022-10-19T06:25:55.100Z,5.63
2022-10-19T06:26:54.627Z,5.63
2022-10-19T06:27:55.121Z,5.63
2022-10-19T06:28:54.435Z,5.63
2022-10-19T06:29:55.113Z,5.63
2022-10-19T06:30:54.449Z,5.63
2022-10-19T06:31:55.120Z,5.63
2022-10-19T06:32:55.287Z,5.63
2022-10-19T06:33:55.971Z,5.63
2022-10-19T06:34:56.469Z,5.63
2022-10-19T06:35:53.396Z,5.63
2022-10-19T06:36:53.399Z,5.63
2022-10-19T06:37:55.130Z,5.63
2022-10-19T06:38:53.387Z,5.63
2022-10-19T06:39:53.425Z,11.25
2022-10-19T06:40:53.385Z,11.25
2022-10-19T06:41:53.380Z,11.25
2022-10-19T06:42:55.132Z,11.25
2022-10-19T06:43:53.378Z,11.25
2022-10-19T06:44:53.371Z,11.25
2022-10-19T06:45:55.140Z,11.25
2022-10-19T06:46:53.365Z,11.25
2022-10-19T06:47:55.148Z,16.88
2022-10-19T06:48:55.173Z,16.88
2022-10-19T06:49:55.134Z,16.88
2022-10-19T06:50:55.121Z,16.88
2022-10-19T06:51:55.172Z,16.88
2022-10-19T06:52:55.152Z,16.88
2022-10-19T06:53:57.069Z,16.88
2022-10-19T06:54:55.143Z,16.88
2022-10-19T06:55:55.125Z,16.88
2022-10-19T06:56:55.125Z,16.88
2022-10-19T06:57:55.129Z,16.88
2022-10-19T06:58:55.149Z,16.88
2022-10-19T06:59:55.127Z,16.88
2022-10-19T07:00:55.156Z,16.88
2022-10-19T07:01:55.128Z,16.88
2022-10-19T07:02:55.131Z,16.88
2022-10-19T07:03:55.146Z,16.88
2022-10-19T07:04:55.143Z,16.88
2022-10-19T07:05:55.139Z,22.50
2022-10-19T07:06:55.150Z,22.50
2022-10-19T07:07:55.235Z,22.50
2022-10-19T07:08:55.152Z,22.50
2022-10-19T07:09:55.174Z,22.50
2022-10-19T07:10:55.151Z,22.50
2022-10-19T07:11:55.151Z,22.50
2022-10-19T07:12:55.232Z,28.13
2022-10-19T07:13:55.184Z,28.13
2022-10-19T07:14:55.149Z,28.13
2022-10-19T07:15:55.150Z,28.13
2022-10-19T07:16:55.143Z,28.13
2022-10-19T07:17:54.656Z,28.13
2022-10-19T07:18:55.154Z,28.13
2022-10-19T07:19:53.288Z,28.13
2022-10-19T07:20:53.277Z,28.13
2022-10-19T07:21:53.274Z,28.13
2022-10-19T07:22:55.167Z,28.13
2022-10-19T07:23:55.282Z,28.13
2022-10-19T07:24:54.672Z,33.75
2022-10-19T07:25:55.181Z,33.75
2022-10-19T07:26:55.160Z,33.75
2022-10-19T07:27:54.279Z,33.75
2022-10-19T07:28:55.165Z,33.75
2022-10-19T07:29:55.161Z,33.75
2022-10-19T07:30:55.172Z,33.75
2022-10-19T07:31:54.667Z,39.38
2022-10-19T07:32:54.259Z,39.38
2022-10-19T07:33:55.165Z,39.38
2022-10-19T07:34:53.243Z,39.38
2022-10-19T07:35:53.245Z,39.38
2022-10-19T07:36:55.172Z,39.38
2022-10-19T07:37:53.234Z,45.00
2022-10-19T07:38:53.234Z,45.00
2022-10-19T07:39:55.167Z,45.00
2022-10-19T07:40:55.180Z,45.00
2022-10-19T07:41:53.239Z,50.63
2022-10-19T07:42:55.165Z,50.63
2022-10-19T07:43:53.226Z,50.63
2022-10-19T07:44:53.225Z,50.63
2022-10-19T07:45:55.186Z,50.63
2022-10-19T07:46:53.215Z,50.63
2022-10-19T07:47:55.174Z,56.25
2022-10-19T07:48:55.184Z,56.25
2022-10-19T07:49:53.222Z,56.25
2022-10-19T07:50:53.207Z,50.63
2022-10-19T07:51:55.182Z,50.63
2022-10-19T07:52:53.208Z,56.25
2022-10-19T07:53:55.178Z,56.25
2022-10-19T07:54:53.215Z,56.25
2022-10-19T07:55:55.186Z,61.88
2022-10-19T07:56:55.190Z,61.88
2022-10-19T07:57:54.709Z,61.88
2022-10-19T07:58:53.187Z,67.50
2022-10-19T07:59:54.681Z,67.50
2022-10-19T08:00:53.182Z,67.50
2022-10-19T08:01:54.773Z,67.50
2022-10-19T08:02:59.736Z,67.50
2022-10-19T08:04:43.380Z,73.13
2022-10-19T08:05:01.745Z,90.00
2022-10-19T08:05:54.694Z,67.50
2022-10-19T08:06:54.684Z,67.50
2022-10-19T08:07:54.779Z,73.13
2022-10-19T08:08:54.771Z,78.75
2022-10-19T08:09:54.850Z,95.63
2022-10-19T08:10:53.158Z,90.00
2022-10-19T08:11:54.714Z,84.38
2022-10-19T08:12:54.159Z,90.00
2022-10-19T08:13:54.722Z,95.63
2022-10-19T08:14:53.160Z,95.63
2022-10-19T08:15:53.150Z,84.38
2022-10-19T08:16:53.155Z,84.38
2022-10-19T08:17:54.710Z,67.50
2022-10-19T08:18:53.148Z,73.13
2022-10-19T08:19:53.152Z,78.75
2022-10-19T08:20:53.143Z,73.13
2022-10-19T08:21:53.152Z,61.88
2022-10-19T08:22:56.465Z,61.88
2022-10-19T08:23:54.722Z,73.13
2022-10-19T08:24:54.149Z,73.13
2022-10-19T08:25:54.700Z,67.50
2022-10-19T08:26:54.713Z,67.50
2022-10-19T08:27:54.707Z,73.13
2022-10-19T08:28:54.717Z,84.38
2022-10-19T08:29:54.241Z,61.88
2022-10-19T08:30:54.709Z,78.75
2022-10-19T08:31:53.130Z,84.38
2022-10-19T08:32:54.708Z,90.00
2022-10-19T08:33:54.711Z,90.00
2022-10-19T08:34:54.729Z,90.00
2022-10-19T08:35:54.717Z,90.00
2022-10-19T08:36:54.725Z,90.00
2022-10-19T08:37:55.917Z,84.38
2022-10-19T08:38:54.713Z,73.13
2022-10-19T08:39:54.726Z,61.88
2022-10-19T08:40:54.719Z,67.50
2022-10-19T08:41:54.716Z,84.38
2022-10-19T08:42:54.720Z,61.88
2022-10-19T08:43:54.724Z,67.50
2022-10-19T08:44:54.752Z,67.50
2022-10-19T08:45:54.142Z,61.88
2022-10-19T08:46:54.736Z,67.50
2022-10-19T08:47:54.101Z,84.38
2022-10-19T08:48:54.235Z,90.00
2022-10-19T08:49:53.106Z,90.00
2022-10-19T08:50:53.116Z,90.00
2022-10-19T08:51:54.749Z,95.63
2022-10-19T08:52:53.109Z,95.63
2022-10-19T08:53:53.103Z,95.63
2022-10-19T08:54:53.104Z,84.38
2022-10-19T08:55:53.101Z,73.13
2022-10-19T08:56:54.746Z,84.38
2022-10-19T08:57:54.737Z,78.75
2022-10-19T08:58:54.733Z,95.63
2022-10-19T08:59:54.732Z,101.25
2022-10-19T09:00:54.735Z,101.25
2022-10-19T09:01:54.771Z,101.25
2022-10-19T09:02:54.734Z,101.25
2022-10-19T09:03:56.217Z,95.63
2022-10-19T09:04:54.737Z,95.63
2022-10-19T09:05:54.750Z,95.63
2022-10-19T09:06:53.092Z,101.25
2022-10-19T09:07:54.739Z,101.25
2022-10-19T09:08:54.812Z,101.25
2022-10-19T09:09:54.740Z,101.25
2022-10-19T09:10:54.781Z,101.25
2022-10-19T09:11:54.743Z,101.25
2022-10-19T09:12:57.757Z,90.00
2022-10-19T09:14:04.671Z,95.63
2022-10-19T09:14:54.747Z,67.50
2022-10-19T09:15:54.784Z,95.63
2022-10-19T09:16:54.764Z,95.63
2022-10-19T09:17:54.758Z,101.25
2022-10-19T09:19:53.077Z,106.88
2022-10-19T09:20:53.068Z,112.50
2022-10-19T09:21:54.773Z,118.13
2022-10-19T09:22:53.072Z,123.75
2022-10-19T09:23:53.070Z,129.38
2022-10-19T09:24:54.759Z,135.00
2022-10-19T09:25:53.067Z,135.00
2022-10-19T09:26:54.777Z,101.25
2022-10-19T09:27:54.173Z,95.63
2022-10-19T09:28:53.067Z,95.63
2022-10-19T09:29:54.778Z,135.00
2022-10-19T09:30:53.076Z,140.63
2022-10-19T09:31:54.846Z,140.63
2022-10-19T09:32:53.075Z,140.63
2022-10-19T09:33:54.793Z,90.00
2022-10-19T09:34:53.058Z,84.38
2022-10-19T09:35:54.771Z,90.00
2022-10-19T09:36:54.773Z,90.00
2022-10-19T09:37:54.791Z,95.63
2022-10-19T09:38:54.770Z,118.13
2022-10-19T09:39:55.558Z,146.25
2022-10-19T09:40:54.769Z,151.88
2022-10-19T09:41:54.772Z,157.50
2022-10-19T09:42:54.799Z,151.88
2022-10-19T09:43:53.063Z,157.50
2022-10-19T09:44:53.059Z,163.13
2022-10-19T09:45:54.800Z,163.13
2022-10-19T09:46:53.064Z,163.13
2022-10-19T09:47:54.789Z,168.75
2022-10-19T09:48:53.060Z,168.75
2022-10-19T09:49:53.073Z,168.75
2022-10-19T09:50:53.058Z,174.38
2022-10-19T09:51:53.057Z,174.38
2022-10-19T09:52:54.295Z,174.38
2022-10-19T09:53:53.058Z,174.38
2022-10-19T09:54:53.061Z,123.75
2022-10-19T09:55:53.099Z,129.38
2022-10-19T09:56:53.068Z,129.38
2022-10-19T09:57:53.067Z,123.75
2022-10-19T09:58:54.803Z,112.50
2022-10-19T09:59:54.792Z,118.13
2022-10-19T10:00:54.793Z,140.63
2022-10-19T10:01:54.905Z,157.50
2022-10-19T10:13:01.883Z,174.38
2022-10-19T10:14:00.227Z,196.88
2022-10-19T10:15:01.841Z,202.50
2022-10-19T10:16:00.232Z,213.75
2022-10-19T10:17:01.893Z,202.50
2022-10-19T10:18:00.221Z,208.13
2022-10-19T10:19:01.826Z,174.38
2022-10-19T10:20:01.873Z,151.88
2022-10-19T10:21:01.840Z,146.25
2022-10-19T10:22:01.831Z,146.25
2022-10-19T10:23:01.860Z,140.63
2022-10-19T10:24:01.846Z,135.00
2022-10-19T10:25:01.836Z,129.38
2022-10-19T10:26:01.850Z,123.75
2022-10-19T10:27:01.852Z,118.13
2022-10-19T10:28:01.903Z,118.13
2022-10-19T10:29:01.690Z,123.75
2022-10-19T10:30:00.380Z,118.13
2022-10-19T10:31:01.862Z,123.75
2022-10-19T10:32:01.855Z,135.00
2022-10-19T10:33:09.334Z,146.25
2022-10-19T10:34:10.888Z,185.63
2022-10-19T10:35:01.436Z,140.63
2022-10-19T10:36:00.225Z,135.00
2022-10-19T10:37:01.862Z,135.00
2022-10-19T10:38:01.859Z,146.25
2022-10-19T10:40:03.875Z,135.00
2022-10-19T10:41:01.870Z,135.00
2022-10-19T10:42:01.858Z,163.13
2022-10-19T10:43:01.855Z,151.88
2022-10-19T10:44:04.510Z,163.13
2022-10-19T10:45:01.870Z,163.13
2022-10-19T10:46:01.868Z,157.50
2022-10-19T10:47:01.871Z,151.88
2022-10-19T10:48:01.959Z,151.88
2022-10-19T10:49:01.876Z,146.25
2022-10-19T10:50:01.859Z,140.63
2022-10-19T10:51:01.863Z,135.00
2022-10-19T10:52:01.858Z,129.38
2022-10-19T10:53:01.863Z,123.75
2022-10-19T10:54:01.915Z,123.75
2022-10-19T10:55:01.902Z,123.75
2022-10-19T10:56:01.870Z,135.00
2022-10-19T10:57:04.412Z,129.38
2022-10-19T10:58:01.865Z,135.00
2022-10-19T10:59:01.871Z,140.63
2022-10-19T11:00:01.940Z,140.63
2022-10-19T11:01:06.696Z,140.63
2022-10-19T11:02:01.961Z,146.25
2022-10-19T11:03:01.870Z,151.88
2022-10-19T11:04:01.886Z,168.75
2022-10-19T11:05:01.885Z,185.63
2022-10-19T11:06:00.224Z,185.63
2022-10-19T11:07:00.227Z,213.75
2022-10-19T11:08:00.220Z,202.50
2022-10-19T11:09:02.000Z,191.25
2022-10-19T11:10:01.892Z,191.25
2022-10-19T11:11:01.898Z,185.63
2022-10-19T11:12:01.881Z,191.25
2022-10-19T11:13:01.878Z,191.25
2022-10-19T11:14:01.880Z,202.50
2022-10-19T11:15:01.898Z,202.50
2022-10-19T11:16:01.900Z,202.50
2022-10-19T11:17:02.048Z,213.75
2022-10-19T11:18:01.886Z,213.75
2022-10-19T11:19:01.994Z,247.50
2022-10-19T11:20:01.901Z,213.75
2022-10-19T11:21:01.903Z,208.13
2022-10-19T11:22:01.899Z,202.50
2022-10-19T11:23:01.895Z,202.50
2022-10-19T11:24:01.421Z,202.50
2022-10-19T11:25:00.232Z,208.13
2022-10-19T11:26:01.418Z,208.13
2022-10-19T11:27:01.961Z,219.38
2022-10-19T11:28:00.223Z,230.63
2022-10-19T11:29:00.217Z,230.63
2022-10-19T11:30:00.222Z,225.00
2022-10-19T11:31:01.412Z,208.13
2022-10-19T11:32:00.217Z,202.50
2022-10-19T11:33:00.259Z,191.25
2022-10-19T11:34:00.400Z,185.63
2022-10-19T11:35:01.928Z,180.00
2022-10-19T11:36:00.216Z,180.00
2022-10-19T11:37:00.214Z,174.38
2022-10-19T11:38:19.088Z,168.75
2022-10-19T11:39:00.215Z,163.13
2022-10-19T11:40:00.217Z,163.13
2022-10-19T11:41:16.750Z,174.38
2022-10-19T11:42:01.948Z,185.63
2022-10-19T11:43:00.219Z,185.63
2022-10-19T11:44:01.911Z,185.63
2022-10-19T11:45:01.929Z,185.63
2022-10-19T11:46:00.237Z,185.63
2022-10-19T11:47:01.976Z,196.88
2022-10-19T11:48:00.230Z,247.50
2022-10-19T11:49:00.225Z,213.75
2022-10-19T11:50:01.959Z,225.00
2022-10-19T11:51:16.827Z,275.63
2022-10-19T11:52:01.929Z,393.75
2022-10-19T11:53:00.215Z,438.75
2022-10-19T11:54:00.213Z,461.25
2022-10-19T11:55:01.923Z,382.50
2022-10-19T11:56:01.920Z,444.38
2022-10-19T11:57:04.241Z,416.25
2022-10-19T11:58:01.927Z,455.63
2022-10-19T11:59:02.000Z,450.00
2022-10-19T12:00:13.624Z,405.00
2022-10-19T12:01:01.928Z,410.63
2022-10-19T12:02:01.972Z,399.38
2022-10-19T12:03:03.929Z,444.38
2022-10-19T12:04:01.969Z,438.75
2022-10-19T12:05:01.939Z,556.88
2022-10-19T12:06:01.930Z,669.38
2022-10-19T12:07:01.948Z,562.50
2022-10-19T12:08:01.972Z,540.00
2022-10-19T12:09:00.261Z,551.25
2022-10-19T12:10:01.935Z,714.38
2022-10-19T12:11:00.224Z,950.63
2022-10-19T12:12:01.953Z,1051.88
2022-10-19T12:13:01.940Z,365.63
2022-10-19T12:14:01.945Z,270.00
2022-10-19T12:15:01.941Z,241.88
2022-10-19T12:16:01.940Z,253.13
2022-10-19T12:17:02.249Z,241.88
2022-10-19T12:18:01.969Z,298.13
2022-10-19T12:19:01.944Z,247.50
2022-10-19T12:20:01.951Z,253.13
2022-10-19T12:21:02.067Z,337.50
2022-10-19T12:22:01.964Z,393.75
2022-10-19T12:23:01.962Z,354.38
2022-10-19T12:24:01.962Z,354.38
2022-10-19T12:25:01.969Z,860.63
2022-10-19T12:26:01.973Z,433.13
2022-10-19T12:27:01.973Z,1535.63
2022-10-19T12:28:01.953Z,478.13
2022-10-19T12:29:01.961Z,568.13
2022-10-19T12:30:01.975Z,1710.00
2022-10-19T12:31:00.263Z,298.13
2022-10-19T12:32:00.266Z,303.75
2022-10-19T12:33:00.263Z,736.88
2022-10-19T12:34:00.267Z,1282.50
2022-10-19T12:35:01.983Z,1653.75
2022-10-19T12:36:00.270Z,832.50
2022-10-19T12:37:00.293Z,1670.63
2022-10-19T12:38:00.277Z,1451.25
2022-10-19T12:39:00.682Z,832.50
2022-10-19T12:40:01.986Z,556.88
2022-10-19T12:41:00.293Z,388.13
2022-10-19T12:42:00.277Z,399.38
2022-10-19T12:43:00.292Z,399.38
2022-10-19T12:44:01.984Z,483.75
2022-10-19T12:45:01.990Z,1558.13
2022-10-19T12:46:01.977Z,1507.50
2022-10-19T12:47:02.047Z,883.13
2022-10-19T12:48:01.989Z,669.38
2022-10-19T12:49:01.975Z,1209.38
2022-10-19T12:50:02.007Z,371.25
2022-10-19T12:51:01.982Z,697.50
2022-10-19T12:52:01.978Z,832.50
2022-10-19T12:53:01.997Z,911.25
2022-10-19T12:54:01.994Z,1080.00
2022-10-19T12:55:01.986Z,450.00
2022-10-19T12:56:01.990Z,348.75
2022-10-19T12:57:01.984Z,540.00
2022-10-19T12:58:02.048Z,787.50
2022-10-19T12:59:01.988Z,967.50
2022-10-19T13:00:01.997Z,1102.50
2022-10-19T13:01:02.032Z,1186.88
2022-10-19T13:02:01.991Z,1220.63
2022-10-19T13:03:01.995Z,1113.75
2022-10-19T13:04:02.039Z,1265.63
2022-10-19T13:05:02.022Z,1299.38
2022-10-19T13:06:02.012Z,1310.63
2022-10-19T13:07:01.997Z,1321.88
2022-10-19T13:08:00.323Z,1209.38
2022-10-19T13:09:00.424Z,1209.38
2022-10-19T13:10:00.325Z,1091.25
2022-10-19T13:11:00.331Z,916.88
2022-10-19T13:12:02.015Z,1119.38
2022-10-19T13:13:00.334Z,1181.25
2022-10-19T13:14:00.352Z,1203.75
2022-10-19T13:15:02.024Z,1316.25
2022-10-19T13:16:00.340Z,1395.00
2022-10-19T13:17:00.353Z,1327.50
2022-10-19T13:18:02.367Z,1305.00
2022-10-19T13:19:00.346Z,1198.13
2022-10-19T13:20:02.024Z,1175.63
2022-10-19T13:21:03.525Z,1170.00
2022-10-19T13:22:00.357Z,1119.38
2022-10-19T13:23:02.034Z,1091.25
2022-10-19T13:24:00.357Z,1040.63
2022-10-19T13:25:05.159Z,1029.38
2022-10-19T13:26:00.365Z,973.13
2022-10-19T13:27:02.022Z,984.38
2022-10-19T13:28:00.370Z,1018.13
2022-10-19T13:29:02.026Z,1029.38
2022-10-19T13:30:02.067Z,1096.88
2022-10-19T13:31:08.128Z,1153.13
2022-10-19T13:32:00.387Z,1186.88
2022-10-19T13:33:02.027Z,1209.38
2022-10-19T13:34:00.387Z,1282.50
2022-10-19T13:35:01.436Z,1203.75
2022-10-19T13:36:02.054Z,1215.00
2022-10-19T13:37:00.398Z,1051.88
2022-10-19T13:38:00.399Z,978.75
2022-10-19T13:39:01.548Z,945.00
2022-10-19T13:40:02.045Z,933.75
2022-10-19T13:41:01.569Z,815.63
2022-10-19T13:42:00.414Z,933.75
2022-10-19T13:43:01.416Z,995.63
2022-10-19T13:44:02.048Z,984.38
2022-10-19T13:45:01.429Z,978.75
2022-10-19T13:46:02.055Z,978.75
2022-10-19T13:47:02.057Z,1085.63
2022-10-19T13:48:02.065Z,1029.38
2022-10-19T13:49:02.040Z,1012.50
2022-10-19T13:50:02.064Z,984.38
2022-10-19T13:51:02.065Z,1091.25
2022-10-19T13:52:02.045Z,1051.88
2022-10-19T13:53:02.046Z,826.88
2022-10-19T13:54:02.059Z,675.00
2022-10-19T13:55:02.079Z,753.75
2022-10-19T13:56:00.463Z,691.88
2022-10-19T13:57:01.593Z,748.13
2022-10-19T13:58:02.903Z,877.50
2022-10-19T13:59:02.056Z,984.38
2022-10-19T14:00:02.065Z,1023.75
2022-10-19T14:01:02.056Z,978.75
2022-10-19T14:02:02.150Z,1029.38
2022-10-19T14:03:02.191Z,1023.75
2022-10-19T14:04:02.058Z,1029.38
2022-10-19T14:05:02.064Z,900.00
2022-10-19T14:06:02.074Z,866.25
2022-10-19T14:07:00.491Z,680.63
2022-10-19T14:08:00.493Z,635.63
2022-10-19T14:09:00.630Z,556.88
2022-10-19T14:10:00.504Z,556.88
2022-10-19T14:11:01.734Z,697.50
2022-10-19T14:12:00.502Z,641.25
2022-10-19T14:13:00.515Z,725.63
2022-10-19T14:14:00.515Z,765.00
2022-10-19T14:15:00.510Z,781.88
2022-10-19T14:16:02.092Z,973.13
2022-10-19T14:17:04.050Z,1040.63
2022-10-19T14:18:03.733Z,1141.88
2022-10-19T14:19:02.098Z,1130.63
2022-10-19T14:20:02.091Z,1136.25
2022-10-19T14:21:02.111Z,1108.13
2022-10-19T14:22:00.534Z,1091.25
2022-10-19T14:23:02.078Z,1113.75
2022-10-19T14:24:01.541Z,1080.00
2022-10-19T14:25:02.112Z,1029.38
2022-10-19T14:26:02.084Z,950.63
2022-10-19T14:27:02.081Z,950.63
2022-10-19T14:28:02.084Z,1040.63
2022-10-19T14:29:02.103Z,984.38
2022-10-19T14:30:02.091Z,832.50
2022-10-19T14:31:02.106Z,815.63
2022-10-19T14:32:02.101Z,787.50
2022-10-19T14:33:02.581Z,635.63
2022-10-19T14:34:02.117Z,551.25
2022-10-19T14:35:00.611Z,551.25
2022-10-19T14:36:00.589Z,483.75
2022-10-19T14:37:02.113Z,759.38
2022-10-19T14:38:00.586Z,866.25
2022-10-19T14:39:00.572Z,798.75
2022-10-19T14:40:00.590Z,455.63
2022-10-19T14:41:02.110Z,230.63
2022-10-19T14:42:02.993Z,208.13
2022-10-19T14:43:00.587Z,196.88
2022-10-19T14:44:02.219Z,185.63
2022-10-19T14:45:00.608Z,185.63
2022-10-19T14:46:02.125Z,174.38
2022-10-19T14:47:00.595Z,168.75
2022-10-19T14:48:00.601Z,157.50
2022-10-19T14:49:00.601Z,146.25
2022-10-19T14:50:01.610Z,140.63
2022-10-19T14:51:02.121Z,140.63
2022-10-19T14:52:00.607Z,140.63
2022-10-19T14:53:01.621Z,140.63
2022-10-19T14:54:00.612Z,135.00
2022-10-19T14:55:02.134Z,135.00
2022-10-19T14:56:02.130Z,135.00
2022-10-19T14:57:00.634Z,129.38
2022-10-19T14:58:02.172Z,129.38
2022-10-19T14:59:02.131Z,123.75
2022-10-19T15:00:01.637Z,118.13
2022-10-19T15:01:02.127Z,118.13
2022-10-19T15:02:02.196Z,112.50
2022-10-19T15:03:01.630Z,112.50
2022-10-19T15:04:02.176Z,112.50
2022-10-19T15:05:00.633Z,112.50
2022-10-19T15:06:02.125Z,112.50
2022-10-19T15:07:02.144Z,106.88
2022-10-19T15:08:02.141Z,106.88
2022-10-19T15:09:01.824Z,106.88
2022-10-19T15:10:00.641Z,101.25
2022-10-19T15:11:02.659Z,101.25
2022-10-19T15:12:00.626Z,101.25
2022-10-19T15:13:02.214Z,101.25
2022-10-19T15:14:01.759Z,95.63
2022-10-19T15:15:00.634Z,95.63
2022-10-19T15:16:00.630Z,95.63
2022-10-19T15:17:02.144Z,95.63
2022-10-19T15:18:02.309Z,90.00
2022-10-19T15:19:00.630Z,90.00
2022-10-19T15:20:01.866Z,84.38
2022-10-19T15:21:12.068Z,84.38
2022-10-19T15:22:02.141Z,78.75
2022-10-19T15:23:02.180Z,78.75
2022-10-19T15:24:02.154Z,78.75
2022-10-19T15:25:02.153Z,73.13
2022-10-19T15:26:02.147Z,73.13
2022-10-19T15:27:09.371Z,67.50
2022-10-19T15:28:02.225Z,67.50
2022-10-19T15:29:02.159Z,61.88
2022-10-19T15:30:02.149Z,61.88
2022-10-19T15:31:02.144Z,61.88
2022-10-19T15:32:02.153Z,56.25
2022-10-19T15:33:02.162Z,56.25
2022-10-19T15:34:02.237Z,56.25
2022-10-19T15:35:01.613Z,50.63
2022-10-19T15:37:02.173Z,45.00
2022-10-19T15:38:00.616Z,45.00
2022-10-19T15:39:11.844Z,45.00
2022-10-19T15:40:00.667Z,39.38
2022-10-19T15:41:00.613Z,39.38
2022-10-19T15:42:02.172Z,33.75
2022-10-19T15:43:00.614Z,33.75
2022-10-19T15:44:00.618Z,33.75
2022-10-19T15:45:02.178Z,28.13
2022-10-19T15:46:00.611Z,28.13
2022-10-19T15:47:02.197Z,28.13
2022-10-19T15:48:00.621Z,28.13
2022-10-19T15:49:00.640Z,22.50
2022-10-19T15:50:00.613Z,22.50
2022-10-19T15:51:01.680Z,22.50
2022-10-19T15:52:02.166Z,22.50
2022-10-19T15:53:01.598Z,22.50
2022-10-19T15:54:02.190Z,22.50
2022-10-19T15:55:01.604Z,22.50
2022-10-19T15:57:02.179Z,16.88
2022-10-19T15:58:02.176Z,16.88
2022-10-19T15:59:02.189Z,16.88
2022-10-19T16:00:02.181Z,16.88
2022-10-19T16:12:11.296Z,5.63
2022-10-19T16:13:11.264Z,5.63
2022-10-19T16:14:11.286Z,5.63
2022-10-19T16:15:11.265Z,5.63
2022-10-19T16:16:11.757Z,5.63
2022-10-19T16:17:10.778Z,5.63
2022-10-19T16:18:11.269Z,5.63
2022-10-19T16:19:11.273Z,5.63
2022-10-19T16:20:09.637Z,0.00
2022-10-19T16:21:11.285Z,0.00
2022-10-19T16:22:11.271Z,0.00
2022-10-19T16:23:11.373Z,0.00
2022-10-19T16:24:11.270Z,0.00
2022-10-19T16:25:11.279Z,0.00
2022-10-19T16:26:11.293Z,0.00
2022-10-19T16:27:11.274Z,0.00
2022-10-19T16:28:11.284Z,0.00
2022-10-19T16:29:11.283Z,0.00
2022-10-19T16:30:10.609Z,0.00
2022-10-19T16:31:11.290Z,0.00
2022-10-19T16:32:11.277Z,0.00
2022-10-19T16:33:11.279Z,0.00
2022-10-19T16:34:11.279Z,0.00
2022-10-19T16:35:11.299Z,0.00
2022-10-19T16:36:11.282Z,0.00
2022-10-19T16:37:11.293Z,0.00
2022-10-19T16:38:11.286Z,0.00
2022-10-19T16:39:11.303Z,0.00
2022-10-19T16:40:11.286Z,0.00
2022-10-19T16:41:11.311Z,0.00
2022-10-19T16:42:11.302Z,0.00
2022-10-19T16:43:11.287Z,0.00
2022-10-19T16:44:11.307Z,0.00
2022-10-19T16:45:11.292Z,0.00
2022-10-19T16:46:10.802Z,0.00
2022-10-19T16:47:09.565Z,0.00
2022-10-19T16:48:09.557Z,0.00
2022-10-19T16:49:11.309Z,0.00
2022-10-19T16:50:11.313Z,0.00
2022-10-19T16:51:11.310Z,0.00
2022-10-19T16:52:11.296Z,0.00
2022-10-19T16:53:11.298Z,0.00
2022-10-19T16:54:11.314Z,0.00
2022-10-19T16:55:11.307Z,0.00
2022-10-19T16:56:11.331Z,0.00
2022-10-19T16:57:11.296Z,0.00
2022-10-19T16:58:11.333Z,0.00
2022-10-19T16:59:11.311Z,0.00
2022-10-19T17:00:11.333Z,0.00
2022-10-19T17:01:11.362Z,0.00
2022-10-19T17:02:11.305Z,0.00
2022-10-19T17:03:11.309Z,0.00
2022-10-19T17:04:11.336Z,0.00
2022-10-19T17:05:11.307Z,0.00
2022-10-19T17:06:11.307Z,0.00
2022-10-19T17:07:11.309Z,0.00
2022-10-19T17:08:09.502Z,0.00
2022-10-19T17:10:09.542Z,0.00
2022-10-19T17:11:09.507Z,0.00
2022-10-19T17:12:09.488Z,0.00